Avalon Express — WDD7919 — position and weather

sailwx.info

Track history (hours):
 
Tides and Currents Weather Stations Pressure Air Temp Water Temp Dewpoint Dewpoint Depression Visibility Wind Speed Wind Dir Waves Ship Positions

Avalon Express

Owner: RGWT INC, San Pedro, CA. More information available from US FCC via Universal Licensing System and Coast Guard Vessel Documentation Center.

Last reported at 2017-Jun-23 04:13 UTC. Time now 2017-Jun-23 05:17 UTC.
Position N 33°45' W 118°16'.

Type: High speed craft. MMSI: 367192940.

Date/timePositionNaut miles runAvg speedWind from/ knotsBaromVisibWave heightAir tempDewpointWater temp
2017-Jun-23 04:13N 33°45' W 118°16'0 0.0
2017-Jun-23 03:21N 33°45' W 118°16'1 3.9
2017-Jun-23 03:00N 33°44' W 118°16'1222.6
2017-Jun-23 02:30N 33°32' W 118°17'1218.2
2017-Jun-23 01:52N 33°21' W 118°19'0 0.0
2017-Jun-23 01:30N 33°21' W 118°19'611.8
2017-Jun-23 01:00N 33°26' W 118°18'1326.9
2017-Jun-23 00:30N 33°40' W 118°15'510.7
2017-Jun-23 00:00N 33°45' W 118°16'0 0.0
2017-Jun-22 23:30N 33°45' W 118°16'1 2.7
2017-Jun-22 22:59N 33°44' W 118°16'1122.8
2017-Jun-22 22:30N 33°33' W 118°17'1224.0
2017-Jun-22 22:00N 33°21' W 118°19'2 3.8
2017-Jun-22 21:30N 33°22' W 118°20'910.0
2017-Jun-22 20:37N 33°27' W 118°29'220.9
2017-Jun-22 20:30N 33°29' W 118°28'1326.4
2017-Jun-22 20:00N 33°39' W 118°19'611.6
2017-Jun-22 19:30N 33°45' W 118°16'0 0.0
2017-Jun-22 19:00N 33°45' W 118°16'1 1.0
2017-Jun-22 18:30N 33°44' W 118°17'917.9
2017-Jun-22 18:00N 33°36' W 118°21'1211.7
2017-Jun-22 16:59N 33°27' W 118°29'1021.5
2017-Jun-22 16:30N 33°21' W 118°19'4 8.2
2017-Jun-22 16:01N 33°25' W 118°18'1325.5
2017-Jun-22 15:30N 33°37' W 118°16'815.0
2017-Jun-22 15:00N 33°45' W 118°16'0 0.0
2017-Jun-22 14:27N 33°45' W 118°16'0 0.1
2017-Jun-22 13:30N 33°45' W 118°16'0 0.0
2017-Jun-22 13:00N 33°45' W 118°16'0 0.0
2017-Jun-22 03:28N 33°45' W 118°16'0 0.2
2017-Jun-22 02:59N 33°45' W 118°16'0 0.0
2017-Jun-22 02:30N 33°45' W 118°16'0 0.0
2017-Jun-22 02:00N 33°45' W 118°16'1 2.9
2017-Jun-22 01:30N 33°43' W 118°16'1122.9
2017-Jun-22 01:01N 33°32' W 118°16'1223.1
2017-Jun-22 00:30N 33°21' W 118°19'1 1.6
2017-Jun-22 00:01N 33°21' W 118°19'1010.6
2017-Jun-21 23:03N 33°27' W 118°30'0 9.6
2017-Jun-21 23:00N 33°27' W 118°30'1327.0
2017-Jun-21 22:30N 33°37' W 118°19'815.4
2017-Jun-21 22:00N 33°45' W 118°17'0 0.3
2017-Jun-21 21:30N 33°45' W 118°16'0 0.0
2017-Jun-21 21:00N 33°45' W 118°16'2 3.7
2017-Jun-21 20:30N 33°43' W 118°16'1224.5
2017-Jun-21 20:00N 33°31' W 118°17'1020.9
2017-Jun-21 19:30N 33°21' W 118°19'0 0.1
2017-Jun-21 19:00N 33°21' W 118°19'1223.0
2017-Jun-21 18:30N 33°32' W 118°17'1122.9
2017-Jun-21 18:00N 33°43' W 118°16'1 2.9
2017-Jun-21 17:30N 33°45' W 118°16'0 0.0
2017-Jun-21 17:00N 33°45' W 118°16'0 0.0
2017-Jun-21 16:30N 33°45' W 118°16'0 0.0
2017-Jun-21 16:00N 33°45' W 118°16'0 0.0
2017-Jun-21 15:30N 33°45' W 118°16'0 0.0
2017-Jun-21 15:00N 33°45' W 118°16'0 0.0
2017-Jun-21 14:30N 33°45' W 118°16'0 0.0
2017-Jun-21 13:30N 33°45' W 118°16'0 0.0
2017-Jun-21 01:35N 33°45' W 118°16'1 8.6
2017-Jun-21 01:30N 33°44' W 118°16'1121.5
2017-Jun-21 01:00N 33°33' W 118°16'1325.6
2017-Jun-21 00:30N 33°21' W 118°19'0 0.0
2017-Jun-21 00:00N 33°21' W 118°19'815.5
2017-Jun-20 23:31N 33°26' W 118°26'3 6.4
2017-Jun-20 22:59N 33°27' W 118°30'1325.3
2017-Jun-20 22:30N 33°37' W 118°20'817.1
2017-Jun-20 22:00N 33°44' W 118°17'1 1.1
2017-Jun-20 21:30N 33°45' W 118°16'0 0.0
2017-Jun-20 21:00N 33°45' W 118°16'1 2.9
2017-Jun-20 20:30N 33°44' W 118°16'1224.0
2017-Jun-20 20:01N 33°32' W 118°17'1121.7
2017-Jun-20 19:30N 33°21' W 118°19'0 0.1
2017-Jun-20 18:55N 33°21' W 118°19'1023.5
2017-Jun-20 18:31N 33°30' W 118°17'1325.7
2017-Jun-20 18:00N 33°43' W 118°15'2 4.5
2017-Jun-20 17:30N 33°45' W 118°16'0 0.0
2017-Jun-20 17:00N 33°45' W 118°16'0 0.0
2017-Jun-20 16:30N 33°45' W 118°16'0 0.0
2017-Jun-20 16:00N 33°45' W 118°16'0 0.1
2017-Jun-20 15:29N 33°45' W 118°16'0 0.1
2017-Jun-20 15:00N 33°45' W 118°16'0 0.0
2017-Jun-20 14:30N 33°45' W 118°16'0 0.0
2017-Jun-20 03:02N 33°45' W 118°16'0 0.0
2017-Jun-20 03:00N 33°45' W 118°16'0 0.0
2017-Jun-20 02:30N 33°45' W 118°16'0 0.0
2017-Jun-20 02:00N 33°45' W 118°16'1 2.1
2017-Jun-20 01:30N 33°44' W 118°16'1020.8
2017-Jun-20 01:01N 33°34' W 118°16'1326.2
2017-Jun-20 00:30N 33°21' W 118°19'0 0.3
2017-Jun-20 00:00N 33°21' W 118°19'1019.4
2017-Jun-19 23:30N 33°27' W 118°28'1 2.3
2017-Jun-19 22:59N 33°27' W 118°29'1326.4
2017-Jun-19 22:30N 33°37' W 118°20'816.3
2017-Jun-19 22:00N 33°44' W 118°17'1 1.1
2017-Jun-19 21:30N 33°45' W 118°16'0 0.1
2017-Jun-19 20:47N 33°45' W 118°16'2 8.3
2017-Jun-19 20:31N 33°43' W 118°15'1325.9
2017-Jun-19 20:01N 33°30' W 118°17'918.4
2017-Jun-19 19:30N 33°21' W 118°19'0 0.0
2017-Jun-19 19:00N 33°21' W 118°19'1020.0
2017-Jun-19 18:31N 33°30' W 118°17'1325.2
2017-Jun-19 18:00N 33°43' W 118°16'2 3.9
2017-Jun-19 17:30N 33°45' W 118°16'0 0.0
2017-Jun-19 17:00N 33°45' W 118°16'0 0.2
2017-Jun-19 16:30N 33°45' W 118°16'0 0.0
2017-Jun-19 16:00N 33°45' W 118°16'0 0.0
2017-Jun-19 15:30N 33°45' W 118°16'0 0.0
2017-Jun-19 15:00N 33°45' W 118°16'0 0.1
2017-Jun-19 14:00N 33°45' W 118°16'0 0.1
2017-Jun-19 13:30N 33°45' W 118°16'0 0.0
2017-Jun-18 20:02N 33°45' W 118°16'0 0.3
2017-Jun-18 20:00N 33°45' W 118°16'0 0.1
2017-Jun-18 19:26N 33°45' W 118°16'613.7
2017-Jun-18 19:01N 33°39' W 118°16'1326.9
2017-Jun-18 18:31N 33°26' W 118°18'510.6
2017-Jun-18 18:00N 33°21' W 118°19'3 7.0
2017-Jun-18 17:31N 33°24' W 118°19'1325.2
2017-Jun-18 17:00N 33°36' W 118°16'816.7
2017-Jun-18 16:30N 33°45' W 118°16'0 0.1
2017-Jun-18 16:00N 33°45' W 118°16'0 0.0
2017-Jun-18 15:30N 33°45' W 118°16'0 0.3
2017-Jun-18 15:00N 33°45' W 118°16'0 0.0
2017-Jun-18 14:00N 33°45' W 118°16'0 0.0
2017-Jun-18 13:30N 33°45' W 118°16'0 0.0
2017-Jun-18 13:00N 33°45' W 118°16'0 0.0
2017-Jun-18 12:30N 33°45' W 118°16'0 0.0
2017-Jun-18 07:16N 33°45' W 118°16'0 0.4
2017-Jun-18 07:00N 33°45' W 118°16'0 0.0
2017-Jun-18 06:31N 33°45' W 118°16'611.8
2017-Jun-18 06:00N 33°39' W 118°15'1326.1
2017-Jun-18 05:31N 33°26' W 118°18'510.9
2017-Jun-18 05:01N 33°21' W 118°19'1223.9
2017-Jun-18 04:30N 33°33' W 118°16'1122.4
2017-Jun-18 04:00N 33°44' W 118°16'1 2.4
2017-Jun-18 03:30N 33°45' W 118°16'0 0.0
2017-Jun-18 03:00N 33°45' W 118°16'0 0.0
2017-Jun-18 02:30N 33°45' W 118°16'0 0.0
2017-Jun-18 01:59N 33°45' W 118°16'0 0.0
2017-Jun-18 01:25N 33°45' W 118°16'0 0.0
2017-Jun-18 00:53N 33°45' W 118°16'0 0.0
2017-Jun-18 00:30N 33°45' W 118°16'0 0.1
2017-Jun-18 00:00N 33°45' W 118°16'0 0.1
2017-Jun-17 23:29N 33°45' W 118°16'0 0.0
2017-Jun-17 23:00N 33°45' W 118°16'0 0.1
2017-Jun-17 22:30N 33°45' W 118°16'0 0.1
2017-Jun-17 22:00N 33°45' W 118°16'0 0.0
2017-Jun-17 21:30N 33°45' W 118°16'0 0.1
2017-Jun-17 21:00N 33°45' W 118°16'0 0.1
2017-Jun-17 20:30N 33°45' W 118°16'0 0.0
2017-Jun-17 20:00N 33°45' W 118°16'0 0.2
2017-Jun-17 19:30N 33°45' W 118°16'611.7
2017-Jun-17 19:01N 33°39' W 118°15'1326.7
2017-Jun-17 18:30N 33°26' W 118°18'610.8
2017-Jun-17 17:59N 33°21' W 118°19'4 9.1
2017-Jun-17 17:31N 33°25' W 118°18'1325.3
2017-Jun-17 17:00N 33°37' W 118°16'815.1
2017-Jun-17 16:30N 33°45' W 118°16'0 0.0
2017-Jun-17 16:00N 33°45' W 118°16'0 0.2
2017-Jun-17 15:30N 33°45' W 118°16'0 0.0
2017-Jun-17 15:00N 33°45' W 118°16'0 0.0
2017-Jun-17 02:49N 33°45' W 118°16'0 0.0
2017-Jun-17 02:29N 33°45' W 118°16'0 0.0
2017-Jun-17 01:59N 33°45' W 118°16'2 3.2
2017-Jun-17 01:30N 33°43' W 118°16'1122.7
2017-Jun-17 01:01N 33°32' W 118°17'1223.4
2017-Jun-17 00:30N 33°21' W 118°19'0 0.0
2017-Jun-17 00:00N 33°21' W 118°19'3 5.4
2017-Jun-16 23:31N 33°23' W 118°19'1326.4
2017-Jun-16 23:01N 33°36' W 118°16'917.1
2017-Jun-16 22:30N 33°45' W 118°16'0 0.0
2017-Jun-16 22:00N 33°45' W 118°16'0 0.0
2017-Jun-16 21:30N 33°45' W 118°16'0 0.0
2017-Jun-16 21:00N 33°45' W 118°16'2 3.8
2017-Jun-16 20:31N 33°43' W 118°16'1325.5
2017-Jun-16 20:01N 33°30' W 118°17'1019.6
2017-Jun-16 19:30N 33°21' W 118°19'0 0.0
2017-Jun-16 18:56N 33°21' W 118°19'1022.7
2017-Jun-16 18:30N 33°30' W 118°17'1325.5
2017-Jun-16 18:01N 33°43' W 118°15'2 4.7
2017-Jun-16 17:30N 33°45' W 118°16'0 0.2
2017-Jun-16 17:00N 33°45' W 118°16'0 0.0
2017-Jun-16 16:30N 33°45' W 118°16'0 0.1
2017-Jun-16 16:00N 33°45' W 118°16'0 0.0
2017-Jun-16 15:30N 33°45' W 118°16'0 0.0
2017-Jun-16 15:00N 33°45' W 118°16'0 0.0
2017-Jun-16 14:30N 33°45' W 118°16'0 0.0
2017-Jun-16 02:55N 33°45' W 118°16'0 0.2
2017-Jun-16 02:20N 33°45' W 118°16'0 0.0
2017-Jun-16 01:40N 33°45' W 118°16'1 6.8
2017-Jun-16 01:30N 33°44' W 118°16'1121.1
2017-Jun-16 01:01N 33°33' W 118°17'1325.3
2017-Jun-16 00:30N 33°21' W 118°19'0 0.2
2017-Jun-15 23:59N 33°21' W 118°19'918.9
2017-Jun-15 23:30N 33°27' W 118°28'1 2.8
2017-Jun-15 23:00N 33°27' W 118°29'1326.5
2017-Jun-15 22:30N 33°37' W 118°19'814.8
2017-Jun-15 21:59N 33°44' W 118°17'0 0.9
2017-Jun-15 21:31N 33°45' W 118°16'0 0.0
2017-Jun-15 21:00N 33°45' W 118°16'2 3.3
2017-Jun-15 20:31N 33°43' W 118°16'1325.4
2017-Jun-15 20:01N 33°31' W 118°17'1020.1
2017-Jun-15 19:30N 33°21' W 118°19'0 0.0
2017-Jun-15 19:00N 33°21' W 118°19'1122.3
2017-Jun-15 18:31N 33°32' W 118°17'1223.4
2017-Jun-15 18:00N 33°43' W 118°16'2 3.1
2017-Jun-15 17:30N 33°45' W 118°16'0 0.2
2017-Jun-15 17:00N 33°45' W 118°16'0 0.0
2017-Jun-15 16:30N 33°45' W 118°16'0 0.0
2017-Jun-15 16:00N 33°45' W 118°16'0 0.0
2017-Jun-15 15:30N 33°45' W 118°16'0 0.0
2017-Jun-15 15:00N 33°45' W 118°16'0 0.1
2017-Jun-15 14:30N 33°45' W 118°16'0 0.1
2017-Jun-15 13:30N 33°45' W 118°16'0 0.0
2017-Jun-15 13:00N 33°45' W 118°16'0 0.0
2017-Jun-15 12:30N 33°45' W 118°16'0 0.0
2017-Jun-15 12:00N 33°45' W 118°16'0 0.0
2017-Jun-15 03:07N 33°45' W 118°16'0 0.0
2017-Jun-15 03:00N 33°45' W 118°16'0 0.3
2017-Jun-15 02:30N 33°45' W 118°16'0 0.1
2017-Jun-15 02:00N 33°45' W 118°16'1 2.5
2017-Jun-15 01:31N 33°44' W 118°16'1121.7
2017-Jun-15 01:01N 33°33' W 118°16'1224.6
2017-Jun-15 00:30N 33°21' W 118°19'0 0.0
2017-Jun-15 00:00N 33°21' W 118°19'1111.6
2017-Jun-14 23:06N 33°27' W 118°30'220.1
2017-Jun-14 23:00N 33°28' W 118°28'1326.6
2017-Jun-14 22:30N 33°39' W 118°18'713.0
2017-Jun-14 22:00N 33°45' W 118°16'0 0.0
2017-Jun-14 21:30N 33°45' W 118°16'0 0.0
2017-Jun-14 21:00N 33°45' W 118°16'2 4.4
2017-Jun-14 20:30N 33°43' W 118°15'1325.6
2017-Jun-14 20:00N 33°30' W 118°17'1019.2
2017-Jun-14 19:30N 33°21' W 118°19'0 0.1
2017-Jun-14 19:00N 33°21' W 118°19'1224.8
2017-Jun-14 18:30N 33°33' W 118°17'1121.5
2017-Jun-14 18:01N 33°44' W 118°16'1 2.5
2017-Jun-14 17:30N 33°45' W 118°16'0 0.0
2017-Jun-14 17:00N 33°45' W 118°16'0 0.2
2017-Jun-14 16:30N 33°45' W 118°16'0 0.0
2017-Jun-14 16:00N 33°45' W 118°16'0 0.0
2017-Jun-14 15:30N 33°45' W 118°16'0 0.0
2017-Jun-14 15:00N 33°45' W 118°16'0 0.0
2017-Jun-14 14:00N 33°45' W 118°16'0 0.0
2017-Jun-14 13:05N 33°45' W 118°16'0 0.0
2017-Jun-14 13:00N 33°45' W 118°16'0 0.0
2017-Jun-14 02:42N 33°45' W 118°16'0 0.5
2017-Jun-14 02:30N 33°45' W 118°16'0 0.0
2017-Jun-14 02:01N 33°45' W 118°16'1 2.7
2017-Jun-14 01:30N 33°44' W 118°16'1122.5
2017-Jun-14 01:01N 33°32' W 118°17'1223.8
2017-Jun-14 00:30N 33°21' W 118°19'0 0.0
2017-Jun-14 00:00N 33°21' W 118°19'1019.3
2017-Jun-13 23:30N 33°27' W 118°28'1 2.0
2017-Jun-13 23:00N 33°28' W 118°29'1325.4
2017-Jun-13 22:31N 33°37' W 118°20'714.6
2017-Jun-13 22:00N 33°44' W 118°17'1 1.0
2017-Jun-13 21:29N 33°45' W 118°16'0 0.0
2017-Jun-13 21:00N 33°45' W 118°16'3 5.0
2017-Jun-13 20:29N 33°43' W 118°15'1224.8
2017-Jun-13 20:00N 33°31' W 118°17'1020.6
2017-Jun-13 19:30N 33°21' W 118°19'0 0.8
2017-Jun-13 19:00N 33°21' W 118°19'1224.3
2017-Jun-13 18:30N 33°33' W 118°17'1020.7
2017-Jun-13 18:01N 33°43' W 118°16'2 3.2
2017-Jun-13 17:30N 33°45' W 118°16'0 0.0
2017-Jun-13 17:00N 33°45' W 118°16'0 0.1
2017-Jun-13 16:21N 33°45' W 118°16'0 0.1
2017-Jun-13 15:22N 33°45' W 118°16'0 0.1
2017-Jun-13 14:30N 33°45' W 118°16'  
Track history (hours):
 
Tides and Currents Weather Stations Pressure Air Temp Water Temp Dewpoint Dewpoint Depression Visibility Wind Speed Wind Dir Waves Ship Positions

Avalon Express

Owner: RGWT INC, San Pedro, CA. More information available from US FCC via Universal Licensing System and Coast Guard Vessel Documentation Center.

Last reported at 2017-Jun-23 04:13 UTC. Time now 2017-Jun-23 05:17 UTC.
Position N 33°45' W 118°16'.

Type: High speed craft. MMSI: 367192940.

Date/timePositionNaut miles runAvg speedWind from/ knotsBaromVisibWave heightAir tempDewpointWater temp
2017-Jun-23 04:13N 33°45' W 118°16'0 0.0
2017-Jun-23 03:21N 33°45' W 118°16'1 3.9
2017-Jun-23 03:00N 33°44' W 118°16'1222.6
2017-Jun-23 02:30N 33°32' W 118°17'1218.2
2017-Jun-23 01:52N 33°21' W 118°19'0 0.0
2017-Jun-23 01:30N 33°21' W 118°19'611.8
2017-Jun-23 01:00N 33°26' W 118°18'1326.9
2017-Jun-23 00:30N 33°40' W 118°15'510.7
2017-Jun-23 00:00N 33°45' W 118°16'0 0.0
2017-Jun-22 23:30N 33°45' W 118°16'1 2.7
2017-Jun-22 22:59N 33°44' W 118°16'1122.8
2017-Jun-22 22:30N 33°33' W 118°17'1224.0
2017-Jun-22 22:00N 33°21' W 118°19'2 3.8
2017-Jun-22 21:30N 33°22' W 118°20'910.0
2017-Jun-22 20:37N 33°27' W 118°29'220.9
2017-Jun-22 20:30N 33°29' W 118°28'1326.4
2017-Jun-22 20:00N 33°39' W 118°19'611.6
2017-Jun-22 19:30N 33°45' W 118°16'0 0.0
2017-Jun-22 19:00N 33°45' W 118°16'1 1.0
2017-Jun-22 18:30N 33°44' W 118°17'917.9
2017-Jun-22 18:00N 33°36' W 118°21'1211.7
2017-Jun-22 16:59N 33°27' W 118°29'1021.5
2017-Jun-22 16:30N 33°21' W 118°19'4 8.2
2017-Jun-22 16:01N 33°25' W 118°18'1325.5
2017-Jun-22 15:30N 33°37' W 118°16'815.0
2017-Jun-22 15:00N 33°45' W 118°16'0 0.0
2017-Jun-22 14:27N 33°45' W 118°16'0 0.1
2017-Jun-22 13:30N 33°45' W 118°16'0 0.0
2017-Jun-22 13:00N 33°45' W 118°16'0 0.0
2017-Jun-22 03:28N 33°45' W 118°16'0 0.2
2017-Jun-22 02:59N 33°45' W 118°16'0 0.0
2017-Jun-22 02:30N 33°45' W 118°16'0 0.0
2017-Jun-22 02:00N 33°45' W 118°16'1 2.9
2017-Jun-22 01:30N 33°43' W 118°16'1122.9
2017-Jun-22 01:01N 33°32' W 118°16'1223.1
2017-Jun-22 00:30N 33°21' W 118°19'1 1.6
2017-Jun-22 00:01N 33°21' W 118°19'1010.6
2017-Jun-21 23:03N 33°27' W 118°30'0 9.6
2017-Jun-21 23:00N 33°27' W 118°30'1327.0
2017-Jun-21 22:30N 33°37' W 118°19'815.4
2017-Jun-21 22:00N 33°45' W 118°17'0 0.3
2017-Jun-21 21:30N 33°45' W 118°16'0 0.0
2017-Jun-21 21:00N 33°45' W 118°16'2 3.7
2017-Jun-21 20:30N 33°43' W 118°16'1224.5
2017-Jun-21 20:00N 33°31' W 118°17'1020.9
2017-Jun-21 19:30N 33°21' W 118°19'0 0.1
2017-Jun-21 19:00N 33°21' W 118°19'1223.0
2017-Jun-21 18:30N 33°32' W 118°17'1122.9
2017-Jun-21 18:00N 33°43' W 118°16'1 2.9
2017-Jun-21 17:30N 33°45' W 118°16'0 0.0
2017-Jun-21 17:00N 33°45' W 118°16'0 0.0
2017-Jun-21 16:30N 33°45' W 118°16'0 0.0
2017-Jun-21 16:00N 33°45' W 118°16'0 0.0
2017-Jun-21 15:30N 33°45' W 118°16'0 0.0
2017-Jun-21 15:00N 33°45' W 118°16'0 0.0
2017-Jun-21 14:30N 33°45' W 118°16'0 0.0
2017-Jun-21 13:30N 33°45' W 118°16'0 0.0
2017-Jun-21 01:35N 33°45' W 118°16'1 8.6
2017-Jun-21 01:30N 33°44' W 118°16'1121.5
2017-Jun-21 01:00N 33°33' W 118°16'1325.6
2017-Jun-21 00:30N 33°21' W 118°19'0 0.0
2017-Jun-21 00:00N 33°21' W 118°19'815.5
2017-Jun-20 23:31N 33°26' W 118°26'3 6.4
2017-Jun-20 22:59N 33°27' W 118°30'1325.3
2017-Jun-20 22:30N 33°37' W 118°20'817.1
2017-Jun-20 22:00N 33°44' W 118°17'1 1.1
2017-Jun-20 21:30N 33°45' W 118°16'0 0.0
2017-Jun-20 21:00N 33°45' W 118°16'1 2.9
2017-Jun-20 20:30N 33°44' W 118°16'1224.0
2017-Jun-20 20:01N 33°32' W 118°17'1121.7
2017-Jun-20 19:30N 33°21' W 118°19'0 0.1
2017-Jun-20 18:55N 33°21' W 118°19'1023.5
2017-Jun-20 18:31N 33°30' W 118°17'1325.7
2017-Jun-20 18:00N 33°43' W 118°15'2 4.5
2017-Jun-20 17:30N 33°45' W 118°16'0 0.0
2017-Jun-20 17:00N 33°45' W 118°16'0 0.0
2017-Jun-20 16:30N 33°45' W 118°16'0 0.0
2017-Jun-20 16:00N 33°45' W 118°16'0 0.1
2017-Jun-20 15:29N 33°45' W 118°16'0 0.1
2017-Jun-20 15:00N 33°45' W 118°16'0 0.0
2017-Jun-20 14:30N 33°45' W 118°16'0 0.0
2017-Jun-20 03:02N 33°45' W 118°16'0 0.0
2017-Jun-20 03:00N 33°45' W 118°16'0 0.0
2017-Jun-20 02:30N 33°45' W 118°16'0 0.0
2017-Jun-20 02:00N 33°45' W 118°16'1 2.1
2017-Jun-20 01:30N 33°44' W 118°16'1020.8
2017-Jun-20 01:01N 33°34' W 118°16'1326.2
2017-Jun-20 00:30N 33°21' W 118°19'0 0.3
2017-Jun-20 00:00N 33°21' W 118°19'1019.4
2017-Jun-19 23:30N 33°27' W 118°28'1 2.3
2017-Jun-19 22:59N 33°27' W 118°29'1326.4
2017-Jun-19 22:30N 33°37' W 118°20'816.3
2017-Jun-19 22:00N 33°44' W 118°17'1 1.1
2017-Jun-19 21:30N 33°45' W 118°16'0 0.1
2017-Jun-19 20:47N 33°45' W 118°16'2 8.3
2017-Jun-19 20:31N 33°43' W 118°15'1325.9
2017-Jun-19 20:01N 33°30' W 118°17'918.4
2017-Jun-19 19:30N 33°21' W 118°19'0 0.0
2017-Jun-19 19:00N 33°21' W 118°19'1020.0
2017-Jun-19 18:31N 33°30' W 118°17'1325.2
2017-Jun-19 18:00N 33°43' W 118°16'2 3.9
2017-Jun-19 17:30N 33°45' W 118°16'0 0.0
2017-Jun-19 17:00N 33°45' W 118°16'0 0.2
2017-Jun-19 16:30N 33°45' W 118°16'0 0.0
2017-Jun-19 16:00N 33°45' W 118°16'0 0.0
2017-Jun-19 15:30N 33°45' W 118°16'0 0.0
2017-Jun-19 15:00N 33°45' W 118°16'0 0.1
2017-Jun-19 14:00N 33°45' W 118°16'0 0.1
2017-Jun-19 13:30N 33°45' W 118°16'0 0.0
2017-Jun-18 20:02N 33°45' W 118°16'0 0.3
2017-Jun-18 20:00N 33°45' W 118°16'0 0.1
2017-Jun-18 19:26N 33°45' W 118°16'613.7
2017-Jun-18 19:01N 33°39' W 118°16'1326.9
2017-Jun-18 18:31N 33°26' W 118°18'510.6
2017-Jun-18 18:00N 33°21' W 118°19'3 7.0
2017-Jun-18 17:31N 33°24' W 118°19'1325.2
2017-Jun-18 17:00N 33°36' W 118°16'816.7
2017-Jun-18 16:30N 33°45' W 118°16'0 0.1
2017-Jun-18 16:00N 33°45' W 118°16'0 0.0
2017-Jun-18 15:30N 33°45' W 118°16'0 0.3
2017-Jun-18 15:00N 33°45' W 118°16'0 0.0
2017-Jun-18 14:00N 33°45' W 118°16'0 0.0
2017-Jun-18 13:30N 33°45' W 118°16'0 0.0
2017-Jun-18 13:00N 33°45' W 118°16'0 0.0
2017-Jun-18 12:30N 33°45' W 118°16'0 0.0
2017-Jun-18 07:16N 33°45' W 118°16'0 0.4
2017-Jun-18 07:00N 33°45' W 118°16'0 0.0
2017-Jun-18 06:31N 33°45' W 118°16'611.8
2017-Jun-18 06:00N 33°39' W 118°15'1326.1
2017-Jun-18 05:31N 33°26' W 118°18'510.9
2017-Jun-18 05:01N 33°21' W 118°19'1223.9
2017-Jun-18 04:30N 33°33' W 118°16'1122.4
2017-Jun-18 04:00N 33°44' W 118°16'1 2.4
2017-Jun-18 03:30N 33°45' W 118°16'0 0.0
2017-Jun-18 03:00N 33°45' W 118°16'0 0.0
2017-Jun-18 02:30N 33°45' W 118°16'0 0.0
2017-Jun-18 01:59N 33°45' W 118°16'0 0.0
2017-Jun-18 01:25N 33°45' W 118°16'0 0.0
2017-Jun-18 00:53N 33°45' W 118°16'0 0.0
2017-Jun-18 00:30N 33°45' W 118°16'0 0.1
2017-Jun-18 00:00N 33°45' W 118°16'0 0.1
2017-Jun-17 23:29N 33°45' W 118°16'0 0.0
2017-Jun-17 23:00N 33°45' W 118°16'0 0.1
2017-Jun-17 22:30N 33°45' W 118°16'0 0.1
2017-Jun-17 22:00N 33°45' W 118°16'0 0.0
2017-Jun-17 21:30N 33°45' W 118°16'0 0.1
2017-Jun-17 21:00N 33°45' W 118°16'0 0.1
2017-Jun-17 20:30N 33°45' W 118°16'0 0.0
2017-Jun-17 20:00N 33°45' W 118°16'0 0.2
2017-Jun-17 19:30N 33°45' W 118°16'611.7
2017-Jun-17 19:01N 33°39' W 118°15'1326.7
2017-Jun-17 18:30N 33°26' W 118°18'610.8
2017-Jun-17 17:59N 33°21' W 118°19'4 9.1
2017-Jun-17 17:31N 33°25' W 118°18'1325.3
2017-Jun-17 17:00N 33°37' W 118°16'815.1
2017-Jun-17 16:30N 33°45' W 118°16'0 0.0
2017-Jun-17 16:00N 33°45' W 118°16'0 0.2
2017-Jun-17 15:30N 33°45' W 118°16'0 0.0
2017-Jun-17 15:00N 33°45' W 118°16'0 0.0
2017-Jun-17 02:49N 33°45' W 118°16'0 0.0
2017-Jun-17 02:29N 33°45' W 118°16'0 0.0
2017-Jun-17 01:59N 33°45' W 118°16'2 3.2
2017-Jun-17 01:30N 33°43' W 118°16'1122.7
2017-Jun-17 01:01N 33°32' W 118°17'1223.4
2017-Jun-17 00:30N 33°21' W 118°19'0 0.0
2017-Jun-17 00:00N 33°21' W 118°19'3 5.4
2017-Jun-16 23:31N 33°23' W 118°19'1326.4
2017-Jun-16 23:01N 33°36' W 118°16'917.1
2017-Jun-16 22:30N 33°45' W 118°16'0 0.0
2017-Jun-16 22:00N 33°45' W 118°16'0 0.0
2017-Jun-16 21:30N 33°45' W 118°16'0 0.0
2017-Jun-16 21:00N 33°45' W 118°16'2 3.8
2017-Jun-16 20:31N 33°43' W 118°16'1325.5
2017-Jun-16 20:01N 33°30' W 118°17'1019.6
2017-Jun-16 19:30N 33°21' W 118°19'0 0.0
2017-Jun-16 18:56N 33°21' W 118°19'1022.7
2017-Jun-16 18:30N 33°30' W 118°17'1325.5
2017-Jun-16 18:01N 33°43' W 118°15'2 4.7
2017-Jun-16 17:30N 33°45' W 118°16'0 0.2
2017-Jun-16 17:00N 33°45' W 118°16'0 0.0
2017-Jun-16 16:30N 33°45' W 118°16'0 0.1
2017-Jun-16 16:00N 33°45' W 118°16'0 0.0
2017-Jun-16 15:30N 33°45' W 118°16'0 0.0
2017-Jun-16 15:00N 33°45' W 118°16'0 0.0
2017-Jun-16 14:30N 33°45' W 118°16'0 0.0
2017-Jun-16 02:55N 33°45' W 118°16'0 0.2
2017-Jun-16 02:20N 33°45' W 118°16'0 0.0
2017-Jun-16 01:40N 33°45' W 118°16'1 6.8
2017-Jun-16 01:30N 33°44' W 118°16'1121.1
2017-Jun-16 01:01N 33°33' W 118°17'1325.3
2017-Jun-16 00:30N 33°21' W 118°19'0 0.2
2017-Jun-15 23:59N 33°21' W 118°19'918.9
2017-Jun-15 23:30N 33°27' W 118°28'1 2.8
2017-Jun-15 23:00N 33°27' W 118°29'1326.5
2017-Jun-15 22:30N 33°37' W 118°19'814.8
2017-Jun-15 21:59N 33°44' W 118°17'0 0.9
2017-Jun-15 21:31N 33°45' W 118°16'0 0.0
2017-Jun-15 21:00N 33°45' W 118°16'2 3.3
2017-Jun-15 20:31N 33°43' W 118°16'1325.4
2017-Jun-15 20:01N 33°31' W 118°17'1020.1
2017-Jun-15 19:30N 33°21' W 118°19'0 0.0
2017-Jun-15 19:00N 33°21' W 118°19'1122.3
2017-Jun-15 18:31N 33°32' W 118°17'1223.4
2017-Jun-15 18:00N 33°43' W 118°16'2 3.1
2017-Jun-15 17:30N 33°45' W 118°16'0 0.2
2017-Jun-15 17:00N 33°45' W 118°16'0 0.0
2017-Jun-15 16:30N 33°45' W 118°16'0 0.0
2017-Jun-15 16:00N 33°45' W 118°16'0 0.0
2017-Jun-15 15:30N 33°45' W 118°16'0 0.0
2017-Jun-15 15:00N 33°45' W 118°16'0 0.1
2017-Jun-15 14:30N 33°45' W 118°16'0 0.1
2017-Jun-15 13:30N 33°45' W 118°16'0 0.0
2017-Jun-15 13:00N 33°45' W 118°16'0 0.0
2017-Jun-15 12:30N 33°45' W 118°16'0 0.0
2017-Jun-15 12:00N 33°45' W 118°16'0 0.0
2017-Jun-15 03:07N 33°45' W 118°16'0 0.0
2017-Jun-15 03:00N 33°45' W 118°16'0 0.3
2017-Jun-15 02:30N 33°45' W 118°16'0 0.1
2017-Jun-15 02:00N 33°45' W 118°16'1 2.5
2017-Jun-15 01:31N 33°44' W 118°16'1121.7
2017-Jun-15 01:01N 33°33' W 118°16'1224.6
2017-Jun-15 00:30N 33°21' W 118°19'0 0.0
2017-Jun-15 00:00N 33°21' W 118°19'1111.6
2017-Jun-14 23:06N 33°27' W 118°30'220.1
2017-Jun-14 23:00N 33°28' W 118°28'1326.6
2017-Jun-14 22:30N 33°39' W 118°18'713.0
2017-Jun-14 22:00N 33°45' W 118°16'0 0.0
2017-Jun-14 21:30N 33°45' W 118°16'0 0.0
2017-Jun-14 21:00N 33°45' W 118°16'2 4.4
2017-Jun-14 20:30N 33°43' W 118°15'1325.6
2017-Jun-14 20:00N 33°30' W 118°17'1019.2
2017-Jun-14 19:30N 33°21' W 118°19'0 0.1
2017-Jun-14 19:00N 33°21' W 118°19'1224.8
2017-Jun-14 18:30N 33°33' W 118°17'1121.5
2017-Jun-14 18:01N 33°44' W 118°16'1 2.5
2017-Jun-14 17:30N 33°45' W 118°16'0 0.0
2017-Jun-14 17:00N 33°45' W 118°16'0 0.2
2017-Jun-14 16:30N 33°45' W 118°16'0 0.0
2017-Jun-14 16:00N 33°45' W 118°16'0 0.0
2017-Jun-14 15:30N 33°45' W 118°16'0 0.0
2017-Jun-14 15:00N 33°45' W 118°16'0 0.0
2017-Jun-14 14:00N 33°45' W 118°16'0 0.0
2017-Jun-14 13:05N 33°45' W 118°16'0 0.0
2017-Jun-14 13:00N 33°45' W 118°16'0 0.0
2017-Jun-14 02:42N 33°45' W 118°16'0 0.5
2017-Jun-14 02:30N 33°45' W 118°16'0 0.0
2017-Jun-14 02:01N 33°45' W 118°16'1 2.7
2017-Jun-14 01:30N 33°44' W 118°16'1122.5
2017-Jun-14 01:01N 33°32' W 118°17'1223.8
2017-Jun-14 00:30N 33°21' W 118°19'0 0.0
2017-Jun-14 00:00N 33°21' W 118°19'1019.3
2017-Jun-13 23:30N 33°27' W 118°28'1 2.0
2017-Jun-13 23:00N 33°28' W 118°29'1325.4
2017-Jun-13 22:31N 33°37' W 118°20'714.6
2017-Jun-13 22:00N 33°44' W 118°17'1 1.0
2017-Jun-13 21:29N 33°45' W 118°16'0 0.0
2017-Jun-13 21:00N 33°45' W 118°16'3 5.0
2017-Jun-13 20:29N 33°43' W 118°15'1224.8
2017-Jun-13 20:00N 33°31' W 118°17'1020.6
2017-Jun-13 19:30N 33°21' W 118°19'0 0.8
2017-Jun-13 19:00N 33°21' W 118°19'1224.3
2017-Jun-13 18:30N 33°33' W 118°17'1020.7
2017-Jun-13 18:01N 33°43' W 118°16'2 3.2
2017-Jun-13 17:30N 33°45' W 118°16'0 0.0
2017-Jun-13 17:00N 33°45' W 118°16'0 0.1
2017-Jun-13 16:21N 33°45' W 118°16'0 0.1
2017-Jun-13 15:22N 33°45' W 118°16'0 0.1
2017-Jun-13 14:30N 33°45' W 118°16'  

Dump ship's entire track history